sensor_id;sensor_type;location;lat;lon;timestamp;P1;durP1;ratioP1;P2;durP2;ratioP2
36475;SDS011;56615;42.682;23.364;2024-01-30T00:00:53;11.32;;;6.35;;
36475;SDS011;56615;42.682;23.364;2024-01-30T00:03:19;12.32;;;5.97;;
36475;SDS011;56615;42.682;23.364;2024-01-30T00:05:44;12.63;;;6.60;;
36475;SDS011;56615;42.682;23.364;2024-01-30T00:08:10;11.55;;;6.00;;
36475;SDS011;56615;42.682;23.364;2024-01-30T00:10:35;10.70;;;5.78;;
36475;SDS011;56615;42.682;23.364;2024-01-30T00:13:01;10.13;;;5.60;;
36475;SDS011;56615;42.682;23.364;2024-01-30T00:15:27;12.85;;;7.18;;
36475;SDS011;56615;42.682;23.364;2024-01-30T00:17:53;11.75;;;6.10;;
36475;SDS011;56615;42.682;23.364;2024-01-30T00:20:18;10.95;;;5.88;;
36475;SDS011;56615;42.682;23.364;2024-01-30T00:22:44;11.68;;;5.97;;
36475;SDS011;56615;42.682;23.364;2024-01-30T00:25:09;11.35;;;6.28;;
36475;SDS011;56615;42.682;23.364;2024-01-30T00:27:34;11.27;;;6.47;;
36475;SDS011;56615;42.682;23.364;2024-01-30T00:30:00;12.88;;;7.32;;
36475;SDS011;56615;42.682;23.364;2024-01-30T00:32:25;13.00;;;6.57;;
36475;SDS011;56615;42.682;23.364;2024-01-30T00:34:51;15.10;;;7.57;;
36475;SDS011;56615;42.682;23.364;2024-01-30T00:37:16;12.10;;;7.13;;
36475;SDS011;56615;42.682;23.364;2024-01-30T00:39:41;16.02;;;8.07;;
36475;SDS011;56615;42.682;23.364;2024-01-30T00:42:07;17.23;;;7.80;;
36475;SDS011;56615;42.682;23.364;2024-01-30T00:44:34;15.35;;;7.72;;
36475;SDS011;56615;42.682;23.364;2024-01-30T00:47:02;11.45;;;6.40;;
36475;SDS011;56615;42.682;23.364;2024-01-30T00:49:28;12.80;;;6.25;;
36475;SDS011;56615;42.682;23.364;2024-01-30T00:51:53;12.07;;;6.30;;
36475;SDS011;56615;42.682;23.364;2024-01-30T00:54:18;12.43;;;6.07;;
36475;SDS011;56615;42.682;23.364;2024-01-30T00:56:44;12.73;;;6.07;;
36475;SDS011;56615;42.682;23.364;2024-01-30T00:59:09;12.90;;;6.50;;
36475;SDS011;56615;42.682;23.364;2024-01-30T01:01:37;15.35;;;6.30;;
36475;SDS011;56615;42.682;23.364;2024-01-30T01:04:02;13.93;;;6.30;;
36475;SDS011;56615;42.682;23.364;2024-01-30T01:06:28;14.65;;;6.90;;
36475;SDS011;56615;42.682;23.364;2024-01-30T01:08:53;11.30;;;5.97;;
36475;SDS011;56615;42.682;23.364;2024-01-30T01:11:18;12.85;;;6.05;;
36475;SDS011;56615;42.682;23.364;2024-01-30T01:13:44;14.35;;;6.72;;
36475;SDS011;56615;42.682;23.364;2024-01-30T01:16:09;12.98;;;6.50;;
36475;SDS011;56615;42.682;23.364;2024-01-30T01:18:34;13.05;;;6.20;;
36475;SDS011;56615;42.682;23.364;2024-01-30T01:21:00;11.85;;;6.10;;
36475;SDS011;56615;42.682;23.364;2024-01-30T01:23:26;12.60;;;6.10;;
36475;SDS011;56615;42.682;23.364;2024-01-30T01:25:51;12.15;;;6.30;;
36475;SDS011;56615;42.682;23.364;2024-01-30T01:28:16;11.75;;;6.10;;
36475;SDS011;56615;42.682;23.364;2024-01-30T01:30:42;12.07;;;5.32;;
36475;SDS011;56615;42.682;23.364;2024-01-30T01:33:07;11.95;;;6.22;;
36475;SDS011;56615;42.682;23.364;2024-01-30T01:35:34;11.70;;;6.20;;
36475;SDS011;56615;42.682;23.364;2024-01-30T01:37:59;11.73;;;6.07;;
36475;SDS011;56615;42.682;23.364;2024-01-30T01:40:25;13.07;;;6.28;;
36475;SDS011;56615;42.682;23.364;2024-01-30T01:42:51;12.45;;;6.70;;
36475;SDS011;56615;42.682;23.364;2024-01-30T01:45:17;13.68;;;7.38;;
36475;SDS011;56615;42.682;23.364;2024-01-30T01:47:43;10.70;;;5.50;;
36475;SDS011;56615;42.682;23.364;2024-01-30T01:50:12;11.60;;;6.10;;
36475;SDS011;56615;42.682;23.364;2024-01-30T01:52:40;11.85;;;6.50;;
36475;SDS011;56615;42.682;23.364;2024-01-30T01:55:06;13.02;;;5.97;;
36475;SDS011;56615;42.682;23.364;2024-01-30T01:57:33;11.55;;;5.85;;
36475;SDS011;56615;42.682;23.364;2024-01-30T01:59:58;9.07;;;5.10;;
36475;SDS011;56615;42.682;23.364;2024-01-30T02:02:24;11.15;;;6.28;;
36475;SDS011;56615;42.682;23.364;2024-01-30T02:04:51;9.82;;;5.72;;
36475;SDS011;56615;42.682;23.364;2024-01-30T02:07:17;9.93;;;4.82;;
36475;SDS011;56615;42.682;23.364;2024-01-30T02:09:42;9.57;;;5.30;;
36475;SDS011;56615;42.682;23.364;2024-01-30T02:12:08;9.60;;;5.10;;
36475;SDS011;56615;42.682;23.364;2024-01-30T02:14:43;10.23;;;5.88;;
36475;SDS011;56615;42.682;23.364;2024-01-30T02:17:09;10.82;;;5.53;;
36475;SDS011;56615;42.682;23.364;2024-01-30T02:19:34;10.93;;;5.65;;
36475;SDS011;56615;42.682;23.364;2024-01-30T02:22:00;10.90;;;5.90;;
36475;SDS011;56615;42.682;23.364;2024-01-30T02:24:25;11.77;;;6.60;;
36475;SDS011;56615;42.682;23.364;2024-01-30T02:26:51;11.15;;;6.43;;
36475;SDS011;56615;42.682;23.364;2024-01-30T02:29:16;10.07;;;5.70;;
36475;SDS011;56615;42.682;23.364;2024-01-30T02:31:41;12.52;;;6.22;;
36475;SDS011;56615;42.682;23.364;2024-01-30T02:34:07;10.88;;;5.32;;
36475;SDS011;56615;42.682;23.364;2024-01-30T02:36:32;9.73;;;5.38;;
36475;SDS011;56615;42.682;23.364;2024-01-30T02:38:57;9.77;;;5.30;;
36475;SDS011;56615;42.682;23.364;2024-01-30T02:41:23;13.30;;;6.40;;
36475;SDS011;56615;42.682;23.364;2024-01-30T02:43:48;11.15;;;6.40;;
36475;SDS011;56615;42.682;23.364;2024-01-30T02:46:13;12.60;;;7.40;;
36475;SDS011;56615;42.682;23.364;2024-01-30T02:48:39;10.38;;;6.65;;
36475;SDS011;56615;42.682;23.364;2024-01-30T02:51:04;11.68;;;5.97;;
36475;SDS011;56615;42.682;23.364;2024-01-30T02:53:29;11.13;;;5.53;;
36475;SDS011;56615;42.682;23.364;2024-01-30T02:55:55;12.20;;;5.93;;
36475;SDS011;56615;42.682;23.364;2024-01-30T02:58:20;13.40;;;7.53;;
36475;SDS011;56615;42.682;23.364;2024-01-30T03:00:45;14.23;;;7.50;;
36475;SDS011;56615;42.682;23.364;2024-01-30T03:03:11;11.35;;;6.20;;
36475;SDS011;56615;42.682;23.364;2024-01-30T03:05:37;12.18;;;6.68;;
36475;SDS011;56615;42.682;23.364;2024-01-30T03:08:03;13.40;;;6.07;;
36475;SDS011;56615;42.682;23.364;2024-01-30T03:10:29;11.60;;;6.20;;
36475;SDS011;56615;42.682;23.364;2024-01-30T03:12:54;10.50;;;5.70;;
36475;SDS011;56615;42.682;23.364;2024-01-30T03:15:20;10.93;;;5.50;;
36475;SDS011;56615;42.682;23.364;2024-01-30T03:17:45;9.27;;;4.95;;
36475;SDS011;56615;42.682;23.364;2024-01-30T03:20:11;10.07;;;5.90;;
36475;SDS011;56615;42.682;23.364;2024-01-30T03:22:36;12.32;;;6.80;;
36475;SDS011;56615;42.682;23.364;2024-01-30T03:25:01;12.48;;;6.00;;
36475;SDS011;56615;42.682;23.364;2024-01-30T03:27:27;12.40;;;6.32;;
36475;SDS011;56615;42.682;23.364;2024-01-30T03:29:53;13.73;;;6.50;;
36475;SDS011;56615;42.682;23.364;2024-01-30T03:32:19;10.55;;;5.45;;
36475;SDS011;56615;42.682;23.364;2024-01-30T03:34:44;11.52;;;5.90;;
36475;SDS011;56615;42.682;23.364;2024-01-30T03:37:09;11.65;;;6.47;;
36475;SDS011;56615;42.682;23.364;2024-01-30T03:39:35;10.57;;;5.97;;
36475;SDS011;56615;42.682;23.364;2024-01-30T03:42:01;12.98;;;6.22;;
36475;SDS011;56615;42.682;23.364;2024-01-30T03:44:27;12.27;;;6.40;;
36475;SDS011;56615;42.682;23.364;2024-01-30T03:46:52;10.98;;;6.13;;
36475;SDS011;56615;42.682;23.364;2024-01-30T03:49:17;12.32;;;5.90;;
36475;SDS011;56615;42.682;23.364;2024-01-30T03:51:43;11.18;;;5.80;;
36475;SDS011;56615;42.682;23.364;2024-01-30T03:54:08;12.35;;;5.40;;
36475;SDS011;56615;42.682;23.364;2024-01-30T03:56:34;14.48;;;5.55;;
36475;SDS011;56615;42.682;23.364;2024-01-30T03:59:00;9.00;;;5.13;;
36475;SDS011;56615;42.682;23.364;2024-01-30T04:01:27;9.80;;;4.90;;
36475;SDS011;56615;42.682;23.364;2024-01-30T04:03:53;9.82;;;4.47;;
36475;SDS011;56615;42.682;23.364;2024-01-30T04:06:19;10.13;;;4.97;;
36475;SDS011;56615;42.682;23.364;2024-01-30T04:08:44;13.20;;;6.53;;
36475;SDS011;56615;42.682;23.364;2024-01-30T04:11:10;11.02;;;5.35;;
36475;SDS011;56615;42.682;23.364;2024-01-30T04:13:38;10.63;;;5.47;;
36475;SDS011;56615;42.682;23.364;2024-01-30T04:16:03;11.30;;;5.45;;
36475;SDS011;56615;42.682;23.364;2024-01-30T04:18:29;11.95;;;5.10;;
36475;SDS011;56615;42.682;23.364;2024-01-30T04:20:54;10.77;;;5.53;;
36475;SDS011;56615;42.682;23.364;2024-01-30T04:23:20;10.10;;;4.90;;
36475;SDS011;56615;42.682;23.364;2024-01-30T04:25:45;12.20;;;5.80;;
36475;SDS011;56615;42.682;23.364;2024-01-30T04:28:11;12.10;;;6.20;;
36475;SDS011;56615;42.682;23.364;2024-01-30T04:30:37;12.23;;;6.07;;
36475;SDS011;56615;42.682;23.364;2024-01-30T04:33:03;13.05;;;5.57;;
36475;SDS011;56615;42.682;23.364;2024-01-30T04:35:29;9.85;;;5.55;;
36475;SDS011;56615;42.682;23.364;2024-01-30T04:37:54;13.95;;;7.45;;
36475;SDS011;56615;42.682;23.364;2024-01-30T04:40:20;14.02;;;7.68;;
36475;SDS011;56615;42.682;23.364;2024-01-30T04:42:46;11.88;;;6.75;;
36475;SDS011;56615;42.682;23.364;2024-01-30T04:45:11;10.15;;;5.70;;
36475;SDS011;56615;42.682;23.364;2024-01-30T04:47:37;12.23;;;5.25;;
36475;SDS011;56615;42.682;23.364;2024-01-30T04:50:03;11.00;;;5.63;;
36475;SDS011;56615;42.682;23.364;2024-01-30T04:52:30;10.13;;;5.38;;
36475;SDS011;56615;42.682;23.364;2024-01-30T04:54:55;10.15;;;4.85;;
36475;SDS011;56615;42.682;23.364;2024-01-30T04:57:20;10.18;;;4.57;;
36475;SDS011;56615;42.682;23.364;2024-01-30T04:59:46;10.60;;;5.43;;
36475;SDS011;56615;42.682;23.364;2024-01-30T05:02:11;12.93;;;6.25;;
36475;SDS011;56615;42.682;23.364;2024-01-30T05:04:37;12.30;;;5.93;;
36475;SDS011;56615;42.682;23.364;2024-01-30T05:07:02;12.02;;;5.68;;
36475;SDS011;56615;42.682;23.364;2024-01-30T05:09:27;10.43;;;5.22;;
36475;SDS011;56615;42.682;23.364;2024-01-30T05:11:53;10.23;;;5.78;;
36475;SDS011;56615;42.682;23.364;2024-01-30T05:14:18;12.13;;;5.63;;
36475;SDS011;56615;42.682;23.364;2024-01-30T05:16:44;13.10;;;5.72;;
36475;SDS011;56615;42.682;23.364;2024-01-30T05:19:12;11.80;;;6.20;;
36475;SDS011;56615;42.682;23.364;2024-01-30T05:21:39;13.15;;;5.90;;
36475;SDS011;56615;42.682;23.364;2024-01-30T05:24:04;14.02;;;5.85;;
36475;SDS011;56615;42.682;23.364;2024-01-30T05:26:30;11.57;;;5.63;;
36475;SDS011;56615;42.682;23.364;2024-01-30T05:28:55;14.27;;;8.15;;
36475;SDS011;56615;42.682;23.364;2024-01-30T05:31:20;14.40;;;7.80;;
36475;SDS011;56615;42.682;23.364;2024-01-30T05:33:46;15.80;;;6.07;;
36475;SDS011;56615;42.682;23.364;2024-01-30T05:36:12;25.95;;;12.45;;
36475;SDS011;56615;42.682;23.364;2024-01-30T05:38:38;18.90;;;7.82;;
36475;SDS011;56615;42.682;23.364;2024-01-30T05:41:03;13.05;;;6.03;;
36475;SDS011;56615;42.682;23.364;2024-01-30T05:43:29;15.50;;;5.97;;
36475;SDS011;56615;42.682;23.364;2024-01-30T05:45:54;11.82;;;5.70;;
36475;SDS011;56615;42.682;23.364;2024-01-30T05:48:20;9.73;;;5.35;;
36475;SDS011;56615;42.682;23.364;2024-01-30T05:50:45;11.13;;;5.38;;
36475;SDS011;56615;42.682;23.364;2024-01-30T05:53:11;13.75;;;5.68;;
36475;SDS011;56615;42.682;23.364;2024-01-30T05:55:36;16.92;;;5.95;;
36475;SDS011;56615;42.682;23.364;2024-01-30T05:58:02;11.98;;;6.15;;
36475;SDS011;56615;42.682;23.364;2024-01-30T06:00:27;13.82;;;6.40;;
36475;SDS011;56615;42.682;23.364;2024-01-30T06:02:52;14.20;;;6.20;;
36475;SDS011;56615;42.682;23.364;2024-01-30T06:05:18;13.60;;;6.20;;
36475;SDS011;56615;42.682;23.364;2024-01-30T06:07:43;16.42;;;6.07;;
36475;SDS011;56615;42.682;23.364;2024-01-30T06:10:09;14.93;;;6.72;;
36475;SDS011;56615;42.682;23.364;2024-01-30T06:12:34;13.02;;;6.78;;
36475;SDS011;56615;42.682;23.364;2024-01-30T06:15:00;16.60;;;7.00;;
36475;SDS011;56615;42.682;23.364;2024-01-30T06:17:26;19.42;;;7.75;;
36475;SDS011;56615;42.682;23.364;2024-01-30T06:19:51;15.57;;;7.20;;
36475;SDS011;56615;42.682;23.364;2024-01-30T06:22:17;13.73;;;6.30;;
36475;SDS011;56615;42.682;23.364;2024-01-30T06:24:42;16.92;;;7.45;;
36475;SDS011;56615;42.682;23.364;2024-01-30T06:27:10;15.27;;;7.82;;
36475;SDS011;56615;42.682;23.364;2024-01-30T06:29:35;19.90;;;11.15;;
36475;SDS011;56615;42.682;23.364;2024-01-30T06:32:00;22.27;;;11.30;;
36475;SDS011;56615;42.682;23.364;2024-01-30T06:34:26;23.30;;;9.27;;
36475;SDS011;56615;42.682;23.364;2024-01-30T06:36:51;22.00;;;8.35;;
36475;SDS011;56615;42.682;23.364;2024-01-30T06:39:17;21.73;;;8.15;;
36475;SDS011;56615;42.682;23.364;2024-01-30T06:41:43;22.83;;;8.50;;
36475;SDS011;56615;42.682;23.364;2024-01-30T06:44:08;16.10;;;7.40;;
36475;SDS011;56615;42.682;23.364;2024-01-30T06:46:35;14.85;;;7.30;;
36475;SDS011;56615;42.682;23.364;2024-01-30T06:49:00;21.20;;;7.65;;
36475;SDS011;56615;42.682;23.364;2024-01-30T06:51:26;25.27;;;7.20;;
36475;SDS011;56615;42.682;23.364;2024-01-30T06:53:52;16.80;;;7.03;;
36475;SDS011;56615;42.682;23.364;2024-01-30T06:56:17;13.90;;;6.40;;
36475;SDS011;56615;42.682;23.364;2024-01-30T06:58:46;18.50;;;6.53;;
36475;SDS011;56615;42.682;23.364;2024-01-30T07:01:17;14.15;;;6.00;;
36475;SDS011;56615;42.682;23.364;2024-01-30T07:05:03;15.23;;;6.47;;
36475;SDS011;56615;42.682;23.364;2024-01-30T07:07:29;17.50;;;6.30;;
36475;SDS011;56615;42.682;23.364;2024-01-30T07:09:54;12.63;;;5.40;;
36475;SDS011;56615;42.682;23.364;2024-01-30T07:12:22;11.10;;;5.00;;
36475;SDS011;56615;42.682;23.364;2024-01-30T07:14:51;13.65;;;5.85;;
36475;SDS011;56615;42.682;23.364;2024-01-30T07:17:16;9.13;;;4.63;;
36475;SDS011;56615;42.682;23.364;2024-01-30T07:19:42;13.43;;;5.65;;
36475;SDS011;56615;42.682;23.364;2024-01-30T07:22:07;10.27;;;5.20;;
36475;SDS011;56615;42.682;23.364;2024-01-30T07:24:33;13.00;;;4.50;;
36475;SDS011;56615;42.682;23.364;2024-01-30T07:26:58;9.43;;;4.35;;
36475;SDS011;56615;42.682;23.364;2024-01-30T07:29:24;11.35;;;4.20;;
36475;SDS011;56615;42.682;23.364;2024-01-30T07:31:49;10.55;;;4.32;;
36475;SDS011;56615;42.682;23.364;2024-01-30T07:34:15;7.57;;;4.10;;
36475;SDS011;56615;42.682;23.364;2024-01-30T07:36:40;11.95;;;5.82;;
36475;SDS011;56615;42.682;23.364;2024-01-30T07:39:05;10.27;;;5.80;;
36475;SDS011;56615;42.682;23.364;2024-01-30T07:41:31;9.07;;;3.97;;
36475;SDS011;56615;42.682;23.364;2024-01-30T07:43:56;8.38;;;4.60;;
36475;SDS011;56615;42.682;23.364;2024-01-30T07:46:22;9.10;;;5.10;;
36475;SDS011;56615;42.682;23.364;2024-01-30T07:48:47;6.38;;;3.65;;
36475;SDS011;56615;42.682;23.364;2024-01-30T07:51:13;6.07;;;3.60;;
36475;SDS011;56615;42.682;23.364;2024-01-30T07:53:39;9.98;;;4.30;;
36475;SDS011;56615;42.682;23.364;2024-01-30T07:56:07;6.90;;;3.63;;
36475;SDS011;56615;42.682;23.364;2024-01-30T07:58:32;13.90;;;4.50;;
36475;SDS011;56615;42.682;23.364;2024-01-30T08:00:58;8.52;;;3.83;;
36475;SDS011;56615;42.682;23.364;2024-01-30T08:03:25;7.38;;;3.88;;
36475;SDS011;56615;42.682;23.364;2024-01-30T08:05:51;10.82;;;5.65;;
36475;SDS011;56615;42.682;23.364;2024-01-30T08:08:16;10.57;;;4.22;;
36475;SDS011;56615;42.682;23.364;2024-01-30T08:10:41;10.73;;;4.13;;
36475;SDS011;56615;42.682;23.364;2024-01-30T08:13:07;7.65;;;3.88;;
36475;SDS011;56615;42.682;23.364;2024-01-30T08:15:33;8.90;;;4.07;;
36475;SDS011;56615;42.682;23.364;2024-01-30T08:17:59;8.70;;;3.75;;
36475;SDS011;56615;42.682;23.364;2024-01-30T08:20:24;8.27;;;4.05;;
36475;SDS011;56615;42.682;23.364;2024-01-30T08:22:51;7.18;;;3.80;;
36475;SDS011;56615;42.682;23.364;2024-01-30T08:25:16;8.50;;;3.63;;
36475;SDS011;56615;42.682;23.364;2024-01-30T08:27:42;8.75;;;3.90;;
36475;SDS011;56615;42.682;23.364;2024-01-30T08:30:07;8.05;;;4.25;;
36475;SDS011;56615;42.682;23.364;2024-01-30T08:32:33;10.60;;;3.92;;
36475;SDS011;56615;42.682;23.364;2024-01-30T08:35:01;7.50;;;3.90;;
36475;SDS011;56615;42.682;23.364;2024-01-30T08:37:30;7.97;;;4.13;;
36475;SDS011;56615;42.682;23.364;2024-01-30T08:39:55;8.05;;;4.32;;
36475;SDS011;56615;42.682;23.364;2024-01-30T08:42:21;10.63;;;4.55;;
36475;SDS011;56615;42.682;23.364;2024-01-30T08:44:48;10.68;;;4.68;;
36475;SDS011;56615;42.682;23.364;2024-01-30T08:47:18;9.90;;;4.70;;
36475;SDS011;56615;42.682;23.364;2024-01-30T08:49:43;12.02;;;5.00;;
36475;SDS011;56615;42.682;23.364;2024-01-30T08:52:09;12.63;;;5.13;;
36475;SDS011;56615;42.682;23.364;2024-01-30T08:54:39;9.43;;;4.35;;
36475;SDS011;56615;42.682;23.364;2024-01-30T08:57:05;11.07;;;4.82;;
36475;SDS011;56615;42.682;23.364;2024-01-30T08:59:30;10.55;;;4.72;;
36475;SDS011;56615;42.682;23.364;2024-01-30T09:01:58;8.10;;;4.50;;
36475;SDS011;56615;42.682;23.364;2024-01-30T09:04:24;8.25;;;4.60;;
36475;SDS011;56615;42.682;23.364;2024-01-30T09:06:50;7.47;;;3.67;;
36475;SDS011;56615;42.682;23.364;2024-01-30T09:09:15;9.57;;;3.85;;
36475;SDS011;56615;42.682;23.364;2024-01-30T09:11:41;8.27;;;4.55;;
36475;SDS011;56615;42.682;23.364;2024-01-30T09:14:06;11.45;;;4.72;;
36475;SDS011;56615;42.682;23.364;2024-01-30T09:16:32;9.68;;;4.72;;
36475;SDS011;56615;42.682;23.364;2024-01-30T09:18:57;9.80;;;4.82;;
36475;SDS011;56615;42.682;23.364;2024-01-30T09:21:25;10.93;;;4.45;;
36475;SDS011;56615;42.682;23.364;2024-01-30T09:23:53;7.40;;;4.30;;
36475;SDS011;56615;42.682;23.364;2024-01-30T09:26:19;9.18;;;4.72;;
36475;SDS011;56615;42.682;23.364;2024-01-30T09:28:44;7.70;;;4.20;;
36475;SDS011;56615;42.682;23.364;2024-01-30T09:31:10;11.63;;;4.57;;
36475;SDS011;56615;42.682;23.364;2024-01-30T09:33:36;11.05;;;4.85;;
36475;SDS011;56615;42.682;23.364;2024-01-30T09:36:01;10.35;;;4.32;;
36475;SDS011;56615;42.682;23.364;2024-01-30T09:38:27;8.80;;;4.32;;
36475;SDS011;56615;42.682;23.364;2024-01-30T09:40:53;8.95;;;4.63;;
36475;SDS011;56615;42.682;23.364;2024-01-30T09:43:23;17.38;;;8.00;;
36475;SDS011;56615;42.682;23.364;2024-01-30T09:45:52;10.27;;;4.50;;
36475;SDS011;56615;42.682;23.364;2024-01-30T09:48:18;23.35;;;10.30;;
36475;SDS011;56615;42.682;23.364;2024-01-30T09:50:44;10.55;;;5.10;;
36475;SDS011;56615;42.682;23.364;2024-01-30T09:53:09;9.77;;;4.82;;
36475;SDS011;56615;42.682;23.364;2024-01-30T09:55:36;8.93;;;4.55;;
36475;SDS011;56615;42.682;23.364;2024-01-30T09:58:01;9.48;;;4.43;;
36475;SDS011;56615;42.682;23.364;2024-01-30T10:00:27;7.60;;;4.10;;
36475;SDS011;56615;42.682;23.364;2024-01-30T10:02:53;8.00;;;3.90;;
36475;SDS011;56615;42.682;23.364;2024-01-30T10:05:19;10.80;;;5.55;;
36475;SDS011;56615;42.682;23.364;2024-01-30T10:07:55;9.43;;;4.45;;
36475;SDS011;56615;42.682;23.364;2024-01-30T10:10:22;9.68;;;4.57;;
36475;SDS011;56615;42.682;23.364;2024-01-30T10:12:49;10.43;;;4.80;;
36475;SDS011;56615;42.682;23.364;2024-01-30T10:15:14;10.02;;;5.28;;
36475;SDS011;56615;42.682;23.364;2024-01-30T10:17:40;11.27;;;5.88;;
36475;SDS011;56615;42.682;23.364;2024-01-30T10:20:06;11.65;;;5.10;;
36475;SDS011;56615;42.682;23.364;2024-01-30T10:22:32;11.18;;;4.55;;
36475;SDS011;56615;42.682;23.364;2024-01-30T10:24:58;11.93;;;4.82;;
36475;SDS011;56615;42.682;23.364;2024-01-30T10:27:25;10.75;;;3.90;;
36475;SDS011;56615;42.682;23.364;2024-01-30T10:29:51;8.50;;;4.20;;
36475;SDS011;56615;42.682;23.364;2024-01-30T10:32:17;15.50;;;5.65;;
36475;SDS011;56615;42.682;23.364;2024-01-30T10:34:43;12.85;;;5.28;;
36475;SDS011;56615;42.682;23.364;2024-01-30T10:39:38;7.55;;;3.67;;
36475;SDS011;56615;42.682;23.364;2024-01-30T10:42:10;7.50;;;3.72;;
36475;SDS011;56615;42.682;23.364;2024-01-30T10:47:12;9.65;;;4.47;;
36475;SDS011;56615;42.682;23.364;2024-01-30T10:49:39;11.85;;;3.80;;
36475;SDS011;56615;42.682;23.364;2024-01-30T10:52:05;9.38;;;4.03;;
36475;SDS011;56615;42.682;23.364;2024-01-30T10:54:31;12.05;;;3.97;;
36475;SDS011;56615;42.682;23.364;2024-01-30T10:56:57;10.55;;;5.65;;
36475;SDS011;56615;42.682;23.364;2024-01-30T10:59:26;12.02;;;5.28;;
36475;SDS011;56615;42.682;23.364;2024-01-30T11:01:52;11.20;;;5.38;;
36475;SDS011;56615;42.682;23.364;2024-01-30T11:04:21;10.55;;;5.10;;
36475;SDS011;56615;42.682;23.364;2024-01-30T11:06:46;6.97;;;4.10;;
36475;SDS011;56615;42.682;23.364;2024-01-30T11:09:20;5.07;;;3.20;;
36475;SDS011;56615;42.682;23.364;2024-01-30T11:11:56;8.68;;;4.30;;
36475;SDS011;56615;42.682;23.364;2024-01-30T11:14:30;6.20;;;3.38;;
36475;SDS011;56615;42.682;23.364;2024-01-30T11:16:59;7.05;;;3.67;;
36475;SDS011;56615;42.682;23.364;2024-01-30T11:19:25;10.95;;;4.20;;
36475;SDS011;56615;42.682;23.364;2024-01-30T11:21:54;8.93;;;4.30;;
36475;SDS011;56615;42.682;23.364;2024-01-30T11:24:24;7.55;;;4.05;;
36475;SDS011;56615;42.682;23.364;2024-01-30T11:26:55;8.65;;;4.70;;
36475;SDS011;56615;42.682;23.364;2024-01-30T11:29:25;7.20;;;3.92;;
36475;SDS011;56615;42.682;23.364;2024-01-30T11:31:57;10.00;;;4.57;;
36475;SDS011;56615;42.682;23.364;2024-01-30T11:34:24;6.70;;;3.40;;
36475;SDS011;56615;42.682;23.364;2024-01-30T11:36:56;5.93;;;3.22;;
36475;SDS011;56615;42.682;23.364;2024-01-30T11:39:24;9.40;;;3.97;;
36475;SDS011;56615;42.682;23.364;2024-01-30T11:41:51;8.23;;;4.13;;
36475;SDS011;56615;42.682;23.364;2024-01-30T11:44:18;7.68;;;3.95;;
36475;SDS011;56615;42.682;23.364;2024-01-30T11:46:45;9.43;;;4.43;;
36475;SDS011;56615;42.682;23.364;2024-01-30T11:49:15;12.60;;;7.70;;
36475;SDS011;56615;42.682;23.364;2024-01-30T11:51:42;8.27;;;4.45;;
36475;SDS011;56615;42.682;23.364;2024-01-30T11:54:08;7.30;;;4.28;;
36475;SDS011;56615;42.682;23.364;2024-01-30T11:56:34;10.15;;;4.30;;
36475;SDS011;56615;42.682;23.364;2024-01-30T11:58:59;7.72;;;3.67;;
36475;SDS011;56615;42.682;23.364;2024-01-30T12:01:27;10.77;;;4.45;;
36475;SDS011;56615;42.682;23.364;2024-01-30T12:03:53;9.40;;;4.15;;
36475;SDS011;56615;42.682;23.364;2024-01-30T12:06:22;10.50;;;4.88;;
36475;SDS011;56615;42.682;23.364;2024-01-30T12:09:00;9.30;;;5.07;;
36475;SDS011;56615;42.682;23.364;2024-01-30T12:13:55;9.40;;;3.88;;
36475;SDS011;56615;42.682;23.364;2024-01-30T12:16:20;9.52;;;4.43;;
36475;SDS011;56615;42.682;23.364;2024-01-30T12:18:46;8.75;;;4.90;;
36475;SDS011;56615;42.682;23.364;2024-01-30T12:21:11;8.15;;;4.63;;
36475;SDS011;56615;42.682;23.364;2024-01-30T12:23:37;7.65;;;4.50;;
36475;SDS011;56615;42.682;23.364;2024-01-30T12:26:02;8.32;;;4.45;;
36475;SDS011;56615;42.682;23.364;2024-01-30T12:28:29;9.10;;;4.60;;
36475;SDS011;56615;42.682;23.364;2024-01-30T12:31:01;8.80;;;4.45;;
36475;SDS011;56615;42.682;23.364;2024-01-30T12:33:26;8.57;;;4.43;;
36475;SDS011;56615;42.682;23.364;2024-01-30T12:35:53;11.82;;;5.70;;
36475;SDS011;56615;42.682;23.364;2024-01-30T12:38:18;11.38;;;5.50;;
36475;SDS011;56615;42.682;23.364;2024-01-30T12:40:44;10.00;;;4.60;;
36475;SDS011;56615;42.682;23.364;2024-01-30T12:43:10;9.43;;;4.82;;
36475;SDS011;56615;42.682;23.364;2024-01-30T12:45:35;9.45;;;4.25;;
36475;SDS011;56615;42.682;23.364;2024-01-30T12:48:01;7.75;;;3.85;;
36475;SDS011;56615;42.682;23.364;2024-01-30T12:50:27;13.52;;;6.82;;
36475;SDS011;56615;42.682;23.364;2024-01-30T12:52:52;12.90;;;5.90;;
36475;SDS011;56615;42.682;23.364;2024-01-30T12:55:18;9.77;;;4.63;;
36475;SDS011;56615;42.682;23.364;2024-01-30T12:57:43;9.85;;;5.10;;
36475;SDS011;56615;42.682;23.364;2024-01-30T13:00:09;9.18;;;5.15;;
36475;SDS011;56615;42.682;23.364;2024-01-30T13:02:34;8.43;;;4.78;;
36475;SDS011;56615;42.682;23.364;2024-01-30T13:05:05;11.68;;;5.78;;
36475;SDS011;56615;42.682;23.364;2024-01-30T13:07:30;15.65;;;7.35;;
36475;SDS011;56615;42.682;23.364;2024-01-30T13:09:56;11.90;;;5.97;;
36475;SDS011;56615;42.682;23.364;2024-01-30T13:12:27;9.95;;;5.13;;
36475;SDS011;56615;42.682;23.364;2024-01-30T13:14:53;10.73;;;4.78;;
36475;SDS011;56615;42.682;23.364;2024-01-30T13:17:19;10.73;;;5.85;;
36475;SDS011;56615;42.682;23.364;2024-01-30T13:19:44;9.57;;;4.93;;
36475;SDS011;56615;42.682;23.364;2024-01-30T13:22:09;9.07;;;4.45;;
36475;SDS011;56615;42.682;23.364;2024-01-30T13:24:35;11.20;;;5.22;;
36475;SDS011;56615;42.682;23.364;2024-01-30T13:27:00;8.73;;;4.55;;
36475;SDS011;56615;42.682;23.364;2024-01-30T13:29:26;9.27;;;4.72;;
36475;SDS011;56615;42.682;23.364;2024-01-30T13:31:51;9.43;;;4.80;;
36475;SDS011;56615;42.682;23.364;2024-01-30T13:34:16;12.18;;;5.40;;
36475;SDS011;56615;42.682;23.364;2024-01-30T13:36:42;11.00;;;4.78;;
36475;SDS011;56615;42.682;23.364;2024-01-30T13:39:08;11.55;;;5.00;;
36475;SDS011;56615;42.682;23.364;2024-01-30T13:41:35;12.30;;;5.03;;
36475;SDS011;56615;42.682;23.364;2024-01-30T13:44:02;9.15;;;5.10;;
36475;SDS011;56615;42.682;23.364;2024-01-30T13:46:28;9.57;;;4.97;;
36475;SDS011;56615;42.682;23.364;2024-01-30T13:48:54;11.38;;;4.85;;
36475;SDS011;56615;42.682;23.364;2024-01-30T13:51:20;10.77;;;5.18;;
36475;SDS011;56615;42.682;23.364;2024-01-30T13:53:45;9.55;;;4.90;;
36475;SDS011;56615;42.682;23.364;2024-01-30T13:56:10;11.32;;;5.15;;
36475;SDS011;56615;42.682;23.364;2024-01-30T13:58:36;11.95;;;5.65;;
36475;SDS011;56615;42.682;23.364;2024-01-30T14:01:02;12.40;;;5.32;;
36475;SDS011;56615;42.682;23.364;2024-01-30T14:03:28;9.80;;;5.25;;
36475;SDS011;56615;42.682;23.364;2024-01-30T14:05:54;9.60;;;5.00;;
36475;SDS011;56615;42.682;23.364;2024-01-30T14:08:19;11.13;;;5.60;;
36475;SDS011;56615;42.682;23.364;2024-01-30T14:10:46;12.35;;;6.20;;
36475;SDS011;56615;42.682;23.364;2024-01-30T14:13:12;10.93;;;5.80;;
36475;SDS011;56615;42.682;23.364;2024-01-30T14:15:37;10.48;;;5.45;;
36475;SDS011;56615;42.682;23.364;2024-01-30T14:18:03;10.73;;;5.63;;
36475;SDS011;56615;42.682;23.364;2024-01-30T14:20:30;12.23;;;6.18;;
36475;SDS011;56615;42.682;23.364;2024-01-30T14:22:56;14.18;;;5.45;;
36475;SDS011;56615;42.682;23.364;2024-01-30T14:25:21;12.10;;;5.50;;
36475;SDS011;56615;42.682;23.364;2024-01-30T14:27:47;10.73;;;5.32;;